• Join FlightAware (Why Join?)
  • Login
  • US Flag 
04:14PM EDT


 

Airport Tracker/Info


-or-


 

Live Flight TrackerFlight Track Log ✈ N721CT ✈ 26-Jun-2013 ✈ KMEZ - KRVS

Flight Track Log - Related Links

Times and Time Zones

All times are in EDT time to prevent confusion due to time zone crossing. See the N721CT flight status page for this flight to view local times or setup timezone preferences in your user account.

Time Position Orientation Groundspeed Altitude Reporting Facility
EDT Latitude Longitude Course Direction KTS MPH feet Rate Location/Type
02:57PM 34.5597 -94.2836 287° West 108 124 3,000  Level Memphis Center
02:58PM 34.5694 -94.3069 297° West 97 112 6,000 600 Climbing Memphis Center
02:59PM 34.5750 -94.3272 288° West 81 93 4,300 -600 Descending Memphis Center
03:00PM 34.5806 -94.3503 286° West 70 81 4,800 480 Climbing Memphis Center
03:01PM 34.5984 -94.3953 292° West  Level FlightAware Approximate
03:01PM 34.5903 -94.3708 300° West 70 81 5,300  Level Memphis Center
03:02PM 34.5997 -94.3964 294° West 70 81 5,800 300 Climbing Memphis Center
03:03PM 34.6094 -94.4222 295° West 70 81 6,000 60 Climbing Memphis Center
03:04PM 34.6231 -94.4531 298° West 83 96 6,000  Level Memphis Center
03:05PM 34.6325 -94.4864 289° West 99 114 6,000  Level Memphis Center
03:06PM 34.6458 -94.5200 296° West 105 121 6,100 60 Climbing Memphis Center
03:07PM 34.6553 -94.5506 291° West 110 127 6,200  Climbing Memphis Center
03:08PM 34.6667 -94.5839 293° West 110 127 6,100 -60 Descending Memphis Center
03:09PM 34.6822 -94.6150 301° West 110 127 6,100  Level Memphis Center
03:10PM 34.7000 -94.6436 307° West 110 127 6,100  Level Memphis Center
03:11PM 34.7200 -94.6700 313° West 110 127 6,100  Level Memphis Center
03:12PM 34.7400 -94.6964 313° West 110 127 6,100  Level Memphis Center
03:13PM 34.7597 -94.7250 310° West 105 121 6,100  Level Memphis Center
03:14PM 34.7800 -94.7489 316° Northwest 105 121 6,100  Level Memphis Center
03:15PM 34.8019 -94.7778 313° West 110 127 6,100 -60 Level Memphis Center
03:16PM 34.8239 -94.8044 315° West 110 127 6,000  Descending Memphis Center
03:17PM 34.8522 -94.8353 318° Northwest 107 123 6,100  Climbing Fort Worth Center
03:18PM 34.8775 -94.8547 328° Northwest 107 123 6,100  Level Fort Worth Center
03:19PM 34.8989 -94.8769 320° Northwest 107 123 6,100  Level Fort Worth Center
03:20PM 34.9225 -94.9067 314° West 107 123 6,100  Level Fort Worth Center
03:21PM 34.9417 -94.9339 311° West 112 129 6,100  Level Fort Worth Center
03:22PM 34.9611 -94.9611 311° West 107 123 6,100  Level Fort Worth Center
03:23PM 34.9781 -94.9861 310° West 107 123 6,100  Level Fort Worth Center
03:24PM 35.0017 -95.0081 323° Northwest 107 123 6,100  Level Fort Worth Center
03:25PM 35.0208 -95.0381 308° West 107 123 6,100 -60 Level Fort Worth Center
03:26PM 35.0403 -95.0653 311° West 107 123 6,000 -60 Descending Fort Worth Center
03:27PM 35.0594 -95.0928 310° West 107 123 6,000  Level Fort Worth Center
03:28PM 35.0764 -95.1125 316° Northwest 107 123 6,100  Climbing Fort Worth Center
03:29PM 35.0978 -95.1375 316° Northwest 102 117 6,100  Level Fort Worth Center
03:30PM 35.1192 -95.1672 311° West 102 117 6,100  Level Fort Worth Center
03:31PM 35.1406 -95.1919 317° Northwest 107 123 6,100  Level Fort Worth Center
03:32PM 35.1578 -95.2219 305° West 107 123 6,100  Level Fort Worth Center
03:33PM 35.1706 -95.2472 302° West 107 123 6,100 -60 Level Fort Worth Center
03:34PM 35.1919 -95.2719 317° Northwest 102 117 6,000  Descending Fort Worth Center
03:35PM 35.2153 -95.3019 314° West 102 117 6,100  Climbing Fort Worth Center
03:36PM 35.2367 -95.3242 320° Northwest 108 124 6,100  Level Fort Worth Center
03:37PM 35.2581 -95.3517 314° West 108 124 6,100  Level Fort Worth Center
03:38PM 35.2769 -95.3742 316° Northwest 108 124 6,100  Level Fort Worth Center
03:39PM 35.2983 -95.3964 320° Northwest 108 124 6,100  Level Fort Worth Center
03:40PM 35.3197 -95.4292 309° West 108 124 6,100  Level Fort Worth Center
03:41PM 35.3431 -95.4564 316° Northwest 108 124 6,100  Level Fort Worth Center
03:42PM 35.3603 -95.4842 307° West 108 124 6,100  Level Fort Worth Center
03:43PM 35.3792 -95.5092 313° West 108 124 6,100  Level Fort Worth Center
03:44PM 35.4006 -95.5367 314° West 108 124 6,100  Level Fort Worth Center
03:45PM 35.4239 -95.5617 319° Northwest 114 131 6,100  Level Fort Worth Center
03:46PM 35.4492 -95.5839 324° Northwest 114 131 6,100 -120 Level Fort Worth Center
03:48PM 35.4829 -95.6167 322° Northwest  Level FlightAware Approximate
03:52PM 35.5900 -95.7444 44° Northeast 116 133 5,300  Level Kansas City Center
03:53PM 35.6167 -95.7708 321° Northwest 122 140 4,800 -600 Descending Kansas City Center
03:54PM 35.6344 -95.8075 301° West 119 137 4,100 -660 Descending Kansas City Center
03:55PM 35.6349 -95.4761 43° Northeast  Level FlightAware Approximate
03:55PM 35.6597 -95.8325 321° Northwest 135 155 3,500  Level Kansas City Center
03:56PM 35.6565 -95.4509 44° Northeast  Level FlightAware Approximate
03:56PM 35.6850 -95.8600 319° Northwest 134 154 3,000  Level Kansas City Center
03:57PM 35.6780 -95.4258 44° Northeast  Level FlightAware Approximate
03:58PM 35.6995 -95.4006 44° Northeast  Level FlightAware Approximate